sensor_id;sensor_type;location;lat;lon;timestamp;pressure;altitude;pressure_sealevel;temperature;humidity
66742;BME280;53654;54.152;19.432;2023-02-27T00:01:45;102223.01;;;2.26;63.73
66742;BME280;53654;54.152;19.432;2023-02-27T00:04:13;102226.43;;;2.25;63.60
66742;BME280;53654;54.152;19.432;2023-02-27T00:06:41;102226.83;;;2.27;63.42
66742;BME280;53654;54.152;19.432;2023-02-27T00:09:09;102226.02;;;2.32;63.82
66742;BME280;53654;54.152;19.432;2023-02-27T00:11:37;102226.50;;;2.38;64.59
66742;BME280;53654;54.152;19.432;2023-02-27T00:14:05;102224.93;;;2.44;63.57
66742;BME280;53654;54.152;19.432;2023-02-27T00:16:33;102225.41;;;2.51;64.03
66742;BME280;53654;54.152;19.432;2023-02-27T00:19:02;102231.11;;;2.55;65.07
66742;BME280;53654;54.152;19.432;2023-02-27T00:21:31;102230.45;;;2.59;65.49
66742;BME280;53654;54.152;19.432;2023-02-27T00:24:04;102235.36;;;2.61;66.37
66742;BME280;53654;54.152;19.432;2023-02-27T00:26:32;102239.46;;;2.64;66.16
66742;BME280;53654;54.152;19.432;2023-02-27T00:29:00;102240.07;;;2.65;66.72
66742;BME280;53654;54.152;19.432;2023-02-27T00:31:28;102246.36;;;2.67;67.58
66742;BME280;53654;54.152;19.432;2023-02-27T00:33:57;102249.16;;;2.68;67.98
66742;BME280;53654;54.152;19.432;2023-02-27T00:36:25;102256.09;;;2.69;68.17
66742;BME280;53654;54.152;19.432;2023-02-27T00:38:53;102260.90;;;2.69;67.95
66742;BME280;53654;54.152;19.432;2023-02-27T00:41:21;102263.51;;;2.69;68.50
66742;BME280;53654;54.152;19.432;2023-02-27T00:43:51;102268.02;;;2.70;68.53
66742;BME280;53654;54.152;19.432;2023-02-27T00:46:19;102265.15;;;2.71;68.71
66742;BME280;53654;54.152;19.432;2023-02-27T00:48:47;102268.27;;;2.71;68.32
66742;BME280;53654;54.152;19.432;2023-02-27T00:51:16;102274.47;;;2.71;68.54
66742;BME280;53654;54.152;19.432;2023-02-27T00:53:46;102272.09;;;2.72;68.36
66742;BME280;53654;54.152;19.432;2023-02-27T00:56:14;102268.13;;;2.72;67.43
66742;BME280;53654;54.152;19.432;2023-02-27T00:58:42;102272.95;;;2.72;66.90
66742;BME280;53654;54.152;19.432;2023-02-27T01:01:11;102280.70;;;2.72;67.15
66742;BME280;53654;54.152;19.432;2023-02-27T01:03:39;102279.19;;;2.73;66.99
66742;BME280;53654;54.152;19.432;2023-02-27T01:06:07;102275.86;;;2.72;66.69
66742;BME280;53654;54.152;19.432;2023-02-27T01:08:35;102278.70;;;2.70;65.75
66742;BME280;53654;54.152;19.432;2023-02-27T01:11:04;102279.85;;;2.69;65.04
66742;BME280;53654;54.152;19.432;2023-02-27T01:13:33;102275.33;;;2.68;64.29
66742;BME280;53654;54.152;19.432;2023-02-27T01:16:01;102274.09;;;2.67;64.48
66742;BME280;53654;54.152;19.432;2023-02-27T01:18:29;102277.30;;;2.66;64.59
66742;BME280;53654;54.152;19.432;2023-02-27T01:20:57;102276.11;;;2.66;64.66
66742;BME280;53654;54.152;19.432;2023-02-27T01:23:25;102271.95;;;2.66;63.30
66742;BME280;53654;54.152;19.432;2023-02-27T01:25:53;102281.46;;;2.67;63.29
66742;BME280;53654;54.152;19.432;2023-02-27T01:28:21;102281.11;;;2.66;64.52
66742;BME280;53654;54.152;19.432;2023-02-27T01:30:49;102284.52;;;2.65;63.35
66742;BME280;53654;54.152;19.432;2023-02-27T01:33:18;102285.92;;;2.66;63.85
66742;BME280;53654;54.152;19.432;2023-02-27T01:35:46;102285.55;;;2.65;63.70
66742;BME280;53654;54.152;19.432;2023-02-27T01:38:14;102291.37;;;2.65;63.42
66742;BME280;53654;54.152;19.432;2023-02-27T01:40:43;102287.23;;;2.61;64.27
66742;BME280;53654;54.152;19.432;2023-02-27T01:43:17;102295.44;;;2.63;65.30
66742;BME280;53654;54.152;19.432;2023-02-27T01:45:47;102292.60;;;2.62;65.78
66742;BME280;53654;54.152;19.432;2023-02-27T01:51:04;102298.14;;;2.55;66.82
66742;BME280;53654;54.152;19.432;2023-02-27T01:53:36;102300.15;;;2.50;67.41
66742;BME280;53654;54.152;19.432;2023-02-27T01:56:17;102305.20;;;2.48;67.48
66742;BME280;53654;54.152;19.432;2023-02-27T01:58:47;102309.32;;;2.44;67.63
66742;BME280;53654;54.152;19.432;2023-02-27T02:01:18;102306.59;;;2.42;68.07
66742;BME280;53654;54.152;19.432;2023-02-27T02:03:57;102304.27;;;2.40;68.51
66742;BME280;53654;54.152;19.432;2023-02-27T02:06:36;102313.23;;;2.37;68.53
66742;BME280;53654;54.152;19.432;2023-02-27T02:09:06;102314.55;;;2.35;68.57
66742;BME280;53654;54.152;19.432;2023-02-27T02:11:36;102317.92;;;2.34;68.28
66742;BME280;53654;54.152;19.432;2023-02-27T02:14:04;102317.55;;;2.33;68.62
66742;BME280;53654;54.152;19.432;2023-02-27T02:27:12;102330.54;;;2.20;69.85
66742;BME280;53654;54.152;19.432;2023-02-27T02:41:27;102329.90;;;2.08;70.95
66742;BME280;53654;54.152;19.432;2023-02-27T02:52:30;102346.34;;;2.10;71.01
66742;BME280;53654;54.152;19.432;2023-02-27T02:55:15;102350.04;;;2.11;70.93
66742;BME280;53654;54.152;19.432;2023-02-27T02:57:54;102359.05;;;2.12;70.53
66742;BME280;53654;54.152;19.432;2023-02-27T03:00:30;102360.80;;;2.13;70.36
66742;BME280;53654;54.152;19.432;2023-02-27T03:03:19;102364.42;;;2.16;70.34
66742;BME280;53654;54.152;19.432;2023-02-27T03:05:55;102369.70;;;2.15;70.37
66742;BME280;53654;54.152;19.432;2023-02-27T03:08:30;102372.67;;;2.16;70.34
66742;BME280;53654;54.152;19.432;2023-02-27T03:11:02;102375.14;;;2.17;70.57
66742;BME280;53654;54.152;19.432;2023-02-27T03:13:36;102378.29;;;2.18;70.37
66742;BME280;53654;54.152;19.432;2023-02-27T03:19:31;102388.44;;;2.18;70.26
66742;BME280;53654;54.152;19.432;2023-02-27T03:24:39;102393.59;;;2.15;69.73
66742;BME280;53654;54.152;19.432;2023-02-27T03:27:09;102392.79;;;2.16;70.45
66742;BME280;53654;54.152;19.432;2023-02-27T03:30:04;102395.80;;;2.17;70.45
66742;BME280;53654;54.152;19.432;2023-02-27T03:35:24;102401.21;;;2.15;70.92
66742;BME280;53654;54.152;19.432;2023-02-27T03:38:05;102399.88;;;2.16;71.15
66742;BME280;53654;54.152;19.432;2023-02-27T03:40:39;102405.21;;;2.16;71.06
66742;BME280;53654;54.152;19.432;2023-02-27T03:48:17;102404.43;;;2.17;70.88
66742;BME280;53654;54.152;19.432;2023-02-27T03:50:45;102402.48;;;2.17;70.96
66742;BME280;53654;54.152;19.432;2023-02-27T03:56:13;102410.43;;;2.11;71.30
66742;BME280;53654;54.152;19.432;2023-02-27T03:58:43;102411.92;;;2.10;71.46
66742;BME280;53654;54.152;19.432;2023-02-27T04:01:11;102416.35;;;2.12;71.92
66742;BME280;53654;54.152;19.432;2023-02-27T04:03:48;102420.83;;;2.12;72.29
66742;BME280;53654;54.152;19.432;2023-02-27T04:06:33;102423.73;;;2.08;72.39
66742;BME280;53654;54.152;19.432;2023-02-27T04:18:21;102430.63;;;2.05;72.09
66742;BME280;53654;54.152;19.432;2023-02-27T04:21:40;102426.83;;;2.02;72.14
66742;BME280;53654;54.152;19.432;2023-02-27T04:26:54;102429.19;;;2.04;72.84
66742;BME280;53654;54.152;19.432;2023-02-27T04:29:36;102430.02;;;2.03;73.20
66742;BME280;53654;54.152;19.432;2023-02-27T04:32:28;102436.97;;;2.05;73.36
66742;BME280;53654;54.152;19.432;2023-02-27T04:35:01;102434.00;;;2.04;73.18
66742;BME280;53654;54.152;19.432;2023-02-27T04:40:33;102442.92;;;2.03;73.60
66742;BME280;53654;54.152;19.432;2023-02-27T04:43:06;102438.80;;;2.04;73.64
66742;BME280;53654;54.152;19.432;2023-02-27T04:45:37;102440.77;;;2.05;73.66
66742;BME280;53654;54.152;19.432;2023-02-27T04:48:22;102442.26;;;2.04;73.34
66742;BME280;53654;54.152;19.432;2023-02-27T04:50:54;102449.72;;;1.99;72.82
66742;BME280;53654;54.152;19.432;2023-02-27T04:53:36;102453.12;;;1.98;72.71
66742;BME280;53654;54.152;19.432;2023-02-27T04:56:11;102456.60;;;1.99;72.64
66742;BME280;53654;54.152;19.432;2023-02-27T04:58:49;102457.41;;;2.01;72.88
66742;BME280;53654;54.152;19.432;2023-02-27T05:01:27;102458.72;;;2.03;72.19
66742;BME280;53654;54.152;19.432;2023-02-27T05:03:58;102460.89;;;2.05;72.09
66742;BME280;53654;54.152;19.432;2023-02-27T05:06:31;102462.55;;;2.07;72.44
66742;BME280;53654;54.152;19.432;2023-02-27T05:09:28;102462.45;;;2.08;72.58
66742;BME280;53654;54.152;19.432;2023-02-27T05:14:35;102473.02;;;2.09;72.70
66742;BME280;53654;54.152;19.432;2023-02-27T05:17:33;102475.32;;;2.10;72.69
66742;BME280;53654;54.152;19.432;2023-02-27T05:20:04;102477.48;;;2.09;72.72
66742;BME280;53654;54.152;19.432;2023-02-27T05:22:45;102478.23;;;2.10;72.61
66742;BME280;53654;54.152;19.432;2023-02-27T05:25:27;102486.39;;;2.11;72.56
66742;BME280;53654;54.152;19.432;2023-02-27T05:30:43;102491.27;;;2.12;72.58
66742;BME280;53654;54.152;19.432;2023-02-27T05:33:26;102492.10;;;2.12;72.23
66742;BME280;53654;54.152;19.432;2023-02-27T05:36:10;102496.23;;;2.12;72.35
66742;BME280;53654;54.152;19.432;2023-02-27T05:38:48;102503.88;;;2.13;72.44
66742;BME280;53654;54.152;19.432;2023-02-27T05:41:23;102505.00;;;2.15;72.75
66742;BME280;53654;54.152;19.432;2023-02-27T05:44:04;102512.91;;;2.18;72.43
66742;BME280;53654;54.152;19.432;2023-02-27T05:46:38;102515.90;;;2.19;71.06
66742;BME280;53654;54.152;19.432;2023-02-27T05:49:24;102516.55;;;2.25;69.28
66742;BME280;53654;54.152;19.432;2023-02-27T05:51:56;102520.55;;;2.29;67.98
66742;BME280;53654;54.152;19.432;2023-02-27T05:54:40;102527.52;;;2.34;68.22
66742;BME280;53654;54.152;19.432;2023-02-27T05:57:13;102534.43;;;2.37;68.62
66742;BME280;53654;54.152;19.432;2023-02-27T06:00:00;102539.27;;;2.41;67.86
66742;BME280;53654;54.152;19.432;2023-02-27T06:02:39;102540.63;;;2.41;67.14
66742;BME280;53654;54.152;19.432;2023-02-27T06:05:08;102545.59;;;2.46;67.08
66742;BME280;53654;54.152;19.432;2023-02-27T06:07:36;102544.60;;;2.50;67.86
66742;BME280;53654;54.152;19.432;2023-02-27T06:10:05;102551.23;;;2.55;68.79
66742;BME280;53654;54.152;19.432;2023-02-27T06:12:33;102549.63;;;2.54;68.55
66742;BME280;53654;54.152;19.432;2023-02-27T06:15:01;102554.01;;;2.59;69.38
66742;BME280;53654;54.152;19.432;2023-02-27T06:17:30;102558.98;;;2.62;69.62
66742;BME280;53654;54.152;19.432;2023-02-27T06:19:58;102556.56;;;2.61;69.21
66742;BME280;53654;54.152;19.432;2023-02-27T06:22:26;102561.56;;;2.65;69.75
66742;BME280;53654;54.152;19.432;2023-02-27T06:24:54;102565.45;;;2.63;69.90
66742;BME280;53654;54.152;19.432;2023-02-27T06:27:22;102568.25;;;2.61;69.38
66742;BME280;53654;54.152;19.432;2023-02-27T06:29:51;102570.50;;;2.58;69.39
66742;BME280;53654;54.152;19.432;2023-02-27T06:32:20;102578.98;;;2.55;69.16
66742;BME280;53654;54.152;19.432;2023-02-27T06:34:51;102577.87;;;2.54;69.41
66742;BME280;53654;54.152;19.432;2023-02-27T06:37:20;102580.79;;;2.54;69.40
66742;BME280;53654;54.152;19.432;2023-02-27T06:39:48;102583.80;;;2.52;69.30
66742;BME280;53654;54.152;19.432;2023-02-27T06:42:17;102587.15;;;2.50;69.29
66742;BME280;53654;54.152;19.432;2023-02-27T06:44:45;102589.10;;;2.48;69.95
66742;BME280;53654;54.152;19.432;2023-02-27T06:47:13;102591.11;;;2.47;70.02
66742;BME280;53654;54.152;19.432;2023-02-27T06:49:41;102593.25;;;2.45;70.34
66742;BME280;53654;54.152;19.432;2023-02-27T06:52:09;102598.70;;;2.44;70.49
66742;BME280;53654;54.152;19.432;2023-02-27T06:54:37;102598.23;;;2.42;70.91
66742;BME280;53654;54.152;19.432;2023-02-27T06:57:05;102600.89;;;2.40;70.89
66742;BME280;53654;54.152;19.432;2023-02-27T06:59:33;102603.70;;;2.41;70.83
66742;BME280;53654;54.152;19.432;2023-02-27T07:02:01;102602.70;;;2.42;71.13
66742;BME280;53654;54.152;19.432;2023-02-27T07:04:30;102605.08;;;2.44;71.10
66742;BME280;53654;54.152;19.432;2023-02-27T07:06:58;102606.10;;;2.47;70.84
66742;BME280;53654;54.152;19.432;2023-02-27T07:09:46;102614.26;;;2.51;70.74
66742;BME280;53654;54.152;19.432;2023-02-27T07:12:15;102617.88;;;2.54;70.66
66742;BME280;53654;54.152;19.432;2023-02-27T07:14:43;102617.30;;;2.60;70.70
66742;BME280;53654;54.152;19.432;2023-02-27T07:17:11;102619.69;;;2.66;70.46
66742;BME280;53654;54.152;19.432;2023-02-27T07:19:39;102619.52;;;2.72;70.10
66742;BME280;53654;54.152;19.432;2023-02-27T07:22:07;102624.62;;;2.81;70.33
66742;BME280;53654;54.152;19.432;2023-02-27T07:24:38;102627.03;;;2.87;70.09
66742;BME280;53654;54.152;19.432;2023-02-27T07:27:06;102632.07;;;2.95;69.94
66742;BME280;53654;54.152;19.432;2023-02-27T07:29:34;102631.61;;;2.99;70.00
66742;BME280;53654;54.152;19.432;2023-02-27T07:32:03;102635.65;;;3.04;70.02
66742;BME280;53654;54.152;19.432;2023-02-27T07:34:31;102637.92;;;3.08;69.74
66742;BME280;53654;54.152;19.432;2023-02-27T07:36:59;102639.85;;;3.11;69.72
66742;BME280;53654;54.152;19.432;2023-02-27T07:39:27;102638.97;;;3.18;69.49
66742;BME280;53654;54.152;19.432;2023-02-27T07:41:55;102643.55;;;3.23;69.72
66742;BME280;53654;54.152;19.432;2023-02-27T07:44:23;102638.48;;;3.28;69.58
66742;BME280;53654;54.152;19.432;2023-02-27T07:46:51;102638.98;;;3.35;68.42
66742;BME280;53654;54.152;19.432;2023-02-27T07:49:20;102639.85;;;3.41;66.72
66742;BME280;53654;54.152;19.432;2023-02-27T07:51:48;102643.77;;;3.44;65.38
66742;BME280;53654;54.152;19.432;2023-02-27T07:54:16;102645.29;;;3.46;65.06
66742;BME280;53654;54.152;19.432;2023-02-27T07:56:44;102649.92;;;3.49;64.89
66742;BME280;53654;54.152;19.432;2023-02-27T07:59:12;102650.55;;;3.55;64.32
66742;BME280;53654;54.152;19.432;2023-02-27T08:01:40;102652.80;;;3.62;63.10
66742;BME280;53654;54.152;19.432;2023-02-27T08:04:09;102654.55;;;3.66;62.73
66742;BME280;53654;54.152;19.432;2023-02-27T08:06:37;102654.20;;;3.70;62.41
66742;BME280;53654;54.152;19.432;2023-02-27T08:09:05;102655.59;;;3.73;62.21
66742;BME280;53654;54.152;19.432;2023-02-27T08:11:33;102656.24;;;3.79;62.72
66742;BME280;53654;54.152;19.432;2023-02-27T08:14:02;102655.73;;;3.86;63.59
66742;BME280;53654;54.152;19.432;2023-02-27T08:16:30;102662.16;;;3.91;62.92
66742;BME280;53654;54.152;19.432;2023-02-27T08:19:00;102661.30;;;3.91;62.73
66742;BME280;53654;54.152;19.432;2023-02-27T08:21:28;102665.46;;;3.88;62.71
66742;BME280;53654;54.152;19.432;2023-02-27T08:23:57;102664.46;;;3.81;62.54
66742;BME280;53654;54.152;19.432;2023-02-27T08:26:25;102672.30;;;3.79;62.76
66742;BME280;53654;54.152;19.432;2023-02-27T08:28:54;102674.40;;;3.76;62.48
66742;BME280;53654;54.152;19.432;2023-02-27T08:31:22;102676.08;;;3.72;62.26
66742;BME280;53654;54.152;19.432;2023-02-27T08:33:51;102684.37;;;3.65;61.96
66742;BME280;53654;54.152;19.432;2023-02-27T08:36:34;102682.29;;;3.59;62.31
66742;BME280;53654;54.152;19.432;2023-02-27T08:39:03;102683.77;;;3.61;62.31
66742;BME280;53654;54.152;19.432;2023-02-27T08:41:32;102684.60;;;3.67;62.36
66742;BME280;53654;54.152;19.432;2023-02-27T08:44:01;102691.38;;;3.71;61.47
66742;BME280;53654;54.152;19.432;2023-02-27T08:46:29;102692.21;;;3.77;61.11
66742;BME280;53654;54.152;19.432;2023-02-27T08:48:57;102697.34;;;3.83;60.21
66742;BME280;53654;54.152;19.432;2023-02-27T08:51:26;102698.48;;;3.85;59.63
66742;BME280;53654;54.152;19.432;2023-02-27T08:53:54;102696.00;;;3.84;59.20
66742;BME280;53654;54.152;19.432;2023-02-27T08:56:26;102700.50;;;3.84;59.46
66742;BME280;53654;54.152;19.432;2023-02-27T08:58:55;102703.43;;;3.87;59.92
66742;BME280;53654;54.152;19.432;2023-02-27T09:01:23;102708.53;;;3.93;58.84
66742;BME280;53654;54.152;19.432;2023-02-27T09:03:55;102708.17;;;3.93;58.37
66742;BME280;53654;54.152;19.432;2023-02-27T09:06:24;102716.45;;;3.93;57.92
66742;BME280;53654;54.152;19.432;2023-02-27T09:08:54;102721.88;;;3.90;57.44
66742;BME280;53654;54.152;19.432;2023-02-27T09:11:22;102724.55;;;3.92;57.97
66742;BME280;53654;54.152;19.432;2023-02-27T09:13:51;102722.92;;;3.94;58.63
66742;BME280;53654;54.152;19.432;2023-02-27T09:16:20;102718.70;;;3.99;57.87
66742;BME280;53654;54.152;19.432;2023-02-27T09:18:49;102727.95;;;4.04;57.19
66742;BME280;53654;54.152;19.432;2023-02-27T09:21:17;102728.89;;;4.13;56.20
66742;BME280;53654;54.152;19.432;2023-02-27T09:23:45;102729.25;;;4.20;55.43
66742;BME280;53654;54.152;19.432;2023-02-27T09:26:13;102728.98;;;4.29;54.34
66742;BME280;53654;54.152;19.432;2023-02-27T09:28:43;102732.02;;;4.35;53.50
66742;BME280;53654;54.152;19.432;2023-02-27T09:31:11;102734.84;;;4.43;53.15
66742;BME280;53654;54.152;19.432;2023-02-27T09:33:40;102733.64;;;4.47;52.71
66742;BME280;53654;54.152;19.432;2023-02-27T09:36:08;102737.90;;;4.49;52.72
66742;BME280;53654;54.152;19.432;2023-02-27T09:38:37;102738.78;;;4.49;52.96
66742;BME280;53654;54.152;19.432;2023-02-27T09:43:51;102736.39;;;4.39;53.10
66742;BME280;53654;54.152;19.432;2023-02-27T09:46:21;102735.84;;;4.42;53.37
66742;BME280;53654;54.152;19.432;2023-02-27T09:48:58;102736.52;;;4.42;53.27
66742;BME280;53654;54.152;19.432;2023-02-27T09:51:27;102739.18;;;4.40;52.64
66742;BME280;53654;54.152;19.432;2023-02-27T09:53:59;102738.39;;;4.41;52.19
66742;BME280;53654;54.152;19.432;2023-02-27T09:56:31;102740.97;;;4.45;51.27
66742;BME280;53654;54.152;19.432;2023-02-27T09:59:30;102744.05;;;4.51;51.25
66742;BME280;53654;54.152;19.432;2023-02-27T10:05:19;102744.75;;;4.51;51.58
66742;BME280;53654;54.152;19.432;2023-02-27T10:08:07;102750.00;;;4.56;50.78
66742;BME280;53654;54.152;19.432;2023-02-27T10:16:16;102753.80;;;4.67;50.79
66742;BME280;53654;54.152;19.432;2023-02-27T10:21:23;102758.20;;;4.72;50.19
66742;BME280;53654;54.152;19.432;2023-02-27T10:26:41;102765.25;;;4.71;50.29
66742;BME280;53654;54.152;19.432;2023-02-27T10:29:17;102766.73;;;4.73;49.83
66742;BME280;53654;54.152;19.432;2023-02-27T10:31:54;102769.48;;;4.73;50.26
66742;BME280;53654;54.152;19.432;2023-02-27T10:34:26;102768.77;;;4.72;49.91
66742;BME280;53654;54.152;19.432;2023-02-27T10:36:58;102772.64;;;4.74;50.52
66742;BME280;53654;54.152;19.432;2023-02-27T10:39:28;102770.95;;;4.75;51.32
66742;BME280;53654;54.152;19.432;2023-02-27T10:42:04;102774.53;;;4.81;51.80
66742;BME280;53654;54.152;19.432;2023-02-27T10:44:33;102778.88;;;4.81;51.20
66742;BME280;53654;54.152;19.432;2023-02-27T10:47:01;102777.60;;;4.80;51.51
66742;BME280;53654;54.152;19.432;2023-02-27T10:49:31;102781.67;;;4.79;51.29
66742;BME280;53654;54.152;19.432;2023-02-27T10:54:33;102780.46;;;4.78;50.42
66742;BME280;53654;54.152;19.432;2023-02-27T10:57:45;102780.77;;;4.78;50.67
66742;BME280;53654;54.152;19.432;2023-02-27T10:59:57;102784.04;;;4.77;50.94
66742;BME280;53654;54.152;19.432;2023-02-27T11:02:34;102785.72;;;4.76;49.97
66742;BME280;53654;54.152;19.432;2023-02-27T11:05:05;102782.03;;;4.72;49.72
66742;BME280;53654;54.152;19.432;2023-02-27T11:07:38;102779.17;;;4.69;50.04
66742;BME280;53654;54.152;19.432;2023-02-27T11:12:38;102778.96;;;4.69;50.44
66742;BME280;53654;54.152;19.432;2023-02-27T11:17:43;102773.80;;;4.69;49.75
66742;BME280;53654;54.152;19.432;2023-02-27T11:20:31;102775.92;;;4.74;50.43
66742;BME280;53654;54.152;19.432;2023-02-27T11:23:14;102778.44;;;4.79;51.07
66742;BME280;53654;54.152;19.432;2023-02-27T11:25:43;102774.79;;;4.79;49.13
66742;BME280;53654;54.152;19.432;2023-02-27T11:28:32;102780.37;;;4.80;48.94
66742;BME280;53654;54.152;19.432;2023-02-27T11:31:14;102784.63;;;4.75;48.35
66742;BME280;53654;54.152;19.432;2023-02-27T11:33:52;102781.77;;;4.73;47.91
66742;BME280;53654;54.152;19.432;2023-02-27T11:36:21;102780.36;;;4.69;48.22
66742;BME280;53654;54.152;19.432;2023-02-27T11:38:52;102779.00;;;4.70;48.12
66742;BME280;53654;54.152;19.432;2023-02-27T11:41:34;102775.20;;;4.66;47.71
66742;BME280;53654;54.152;19.432;2023-02-27T11:44:02;102774.27;;;4.65;47.82
66742;BME280;53654;54.152;19.432;2023-02-27T11:46:32;102775.71;;;4.70;47.79
66742;BME280;53654;54.152;19.432;2023-02-27T11:49:39;102776.73;;;4.73;48.17
66742;BME280;53654;54.152;19.432;2023-02-27T11:52:29;102774.12;;;4.76;48.44
66742;BME280;53654;54.152;19.432;2023-02-27T11:55:02;102779.23;;;4.82;47.78
66742;BME280;53654;54.152;19.432;2023-02-27T11:57:34;102773.85;;;4.93;47.89
66742;BME280;53654;54.152;19.432;2023-02-27T12:00:27;102776.08;;;5.00;48.33
66742;BME280;53654;54.152;19.432;2023-02-27T12:06:03;102786.50;;;4.97;47.79
66742;BME280;53654;54.152;19.432;2023-02-27T12:08:52;102785.92;;;4.96;47.48
66742;BME280;53654;54.152;19.432;2023-02-27T12:14:02;102787.30;;;4.81;48.42
66742;BME280;53654;54.152;19.432;2023-02-27T12:22:14;102788.48;;;4.87;48.58
66742;BME280;53654;54.152;19.432;2023-02-27T12:24:53;102792.10;;;4.91;49.97
66742;BME280;53654;54.152;19.432;2023-02-27T12:27:26;102801.45;;;4.91;49.97
66742;BME280;53654;54.152;19.432;2023-02-27T12:30:05;102795.66;;;4.93;48.95
66742;BME280;53654;54.152;19.432;2023-02-27T12:35:28;102805.73;;;4.90;47.96
66742;BME280;53654;54.152;19.432;2023-02-27T12:37:57;102803.46;;;4.86;48.63
66742;BME280;53654;54.152;19.432;2023-02-27T12:40:30;102807.54;;;4.84;48.62
66742;BME280;53654;54.152;19.432;2023-02-27T12:54:18;102810.98;;;4.42;50.81
66742;BME280;53654;54.152;19.432;2023-02-27T13:17:12;102833.20;;;4.22;52.20
66742;BME280;53654;54.152;19.432;2023-02-27T13:19:50;102834.03;;;4.29;52.18
66742;BME280;53654;54.152;19.432;2023-02-27T13:22:31;102840.13;;;4.34;51.47
66742;BME280;53654;54.152;19.432;2023-02-27T13:25:04;102839.25;;;4.33;50.77
66742;BME280;53654;54.152;19.432;2023-02-27T13:27:43;102842.09;;;4.35;50.73
66742;BME280;53654;54.152;19.432;2023-02-27T13:30:20;102842.20;;;4.34;51.40
66742;BME280;53654;54.152;19.432;2023-02-27T13:37:59;102853.25;;;4.19;51.95
66742;BME280;53654;54.152;19.432;2023-02-27T13:40:37;102854.83;;;4.16;51.84
66742;BME280;53654;54.152;19.432;2023-02-27T13:43:28;102855.52;;;4.16;51.86
66742;BME280;53654;54.152;19.432;2023-02-27T13:46:24;102855.58;;;4.11;52.27
66742;BME280;53654;54.152;19.432;2023-02-27T13:51:39;102851.80;;;3.98;51.87
66742;BME280;53654;54.152;19.432;2023-02-27T13:56:48;102856.69;;;3.93;52.55
66742;BME280;53654;54.152;19.432;2023-02-27T13:59:35;102852.44;;;3.87;52.19
66742;BME280;53654;54.152;19.432;2023-02-27T14:04:48;102857.39;;;3.70;52.41
66742;BME280;53654;54.152;19.432;2023-02-27T14:07:21;102858.48;;;3.65;53.02
66742;BME280;53654;54.152;19.432;2023-02-27T14:10:07;102867.73;;;3.60;52.87
66742;BME280;53654;54.152;19.432;2023-02-27T14:12:40;102864.97;;;3.50;53.07
66742;BME280;53654;54.152;19.432;2023-02-27T14:17:46;102864.55;;;3.49;53.37
66742;BME280;53654;54.152;19.432;2023-02-27T14:25:51;102868.91;;;3.43;54.17
66742;BME280;53654;54.152;19.432;2023-02-27T14:28:46;102871.71;;;3.44;54.27
66742;BME280;53654;54.152;19.432;2023-02-27T14:31:25;102869.40;;;3.37;54.20
66742;BME280;53654;54.152;19.432;2023-02-27T14:33:55;102867.16;;;3.30;54.30
66742;BME280;53654;54.152;19.432;2023-02-27T14:36:31;102869.12;;;3.25;54.17
66742;BME280;53654;54.152;19.432;2023-02-27T14:39:00;102873.05;;;3.18;54.41
66742;BME280;53654;54.152;19.432;2023-02-27T14:41:52;102874.01;;;3.14;54.62
66742;BME280;53654;54.152;19.432;2023-02-27T14:44:25;102880.77;;;3.11;54.98
66742;BME280;53654;54.152;19.432;2023-02-27T14:46:55;102885.10;;;3.12;54.83
66742;BME280;53654;54.152;19.432;2023-02-27T14:49:27;102888.66;;;3.11;54.79
66742;BME280;53654;54.152;19.432;2023-02-27T14:52:13;102888.08;;;3.10;54.65
66742;BME280;53654;54.152;19.432;2023-02-27T14:54:41;102891.63;;;3.08;54.83
66742;BME280;53654;54.152;19.432;2023-02-27T14:57:23;102891.77;;;3.11;54.98
66742;BME280;53654;54.152;19.432;2023-02-27T14:59:53;102893.34;;;3.08;54.57
66742;BME280;53654;54.152;19.432;2023-02-27T15:02:27;102892.20;;;3.09;54.82
66742;BME280;53654;54.152;19.432;2023-02-27T15:07:32;102889.16;;;3.11;54.73
66742;BME280;53654;54.152;19.432;2023-02-27T15:10:04;102894.50;;;3.16;54.75
66742;BME280;53654;54.152;19.432;2023-02-27T15:12:36;102888.73;;;3.21;54.73
66742;BME280;53654;54.152;19.432;2023-02-27T15:15:06;102887.27;;;3.22;54.82
66742;BME280;53654;54.152;19.432;2023-02-27T15:17:39;102887.29;;;3.26;54.91
66742;BME280;53654;54.152;19.432;2023-02-27T15:20:29;102892.23;;;3.28;54.58
66742;BME280;53654;54.152;19.432;2023-02-27T15:22:59;102891.73;;;3.22;54.51
66742;BME280;53654;54.152;19.432;2023-02-27T15:25:33;102895.10;;;3.21;54.35
66742;BME280;53654;54.152;19.432;2023-02-27T15:28:21;102898.30;;;3.16;54.18
66742;BME280;53654;54.152;19.432;2023-02-27T15:30:51;102906.44;;;3.11;54.59
66742;BME280;53654;54.152;19.432;2023-02-27T15:33:29;102900.65;;;3.12;54.30
66742;BME280;53654;54.152;19.432;2023-02-27T15:35:58;102898.29;;;3.13;54.36
66742;BME280;53654;54.152;19.432;2023-02-27T15:40:57;102905.77;;;3.17;54.79
66742;BME280;53654;54.152;19.432;2023-02-27T15:43:27;102914.09;;;3.18;54.58
66742;BME280;53654;54.152;19.432;2023-02-27T15:45:57;102914.10;;;3.15;54.79
66742;BME280;53654;54.152;19.432;2023-02-27T15:48:25;102916.44;;;3.14;54.72
66742;BME280;53654;54.152;19.432;2023-02-27T15:50:57;102920.17;;;3.10;54.91
66742;BME280;53654;54.152;19.432;2023-02-27T15:53:28;102921.20;;;3.04;55.14
66742;BME280;53654;54.152;19.432;2023-02-27T15:55:59;102923.48;;;3.01;55.02
66742;BME280;53654;54.152;19.432;2023-02-27T15:58:30;102925.17;;;3.01;54.83
66742;BME280;53654;54.152;19.432;2023-02-27T16:01:06;102928.45;;;2.98;55.12
66742;BME280;53654;54.152;19.432;2023-02-27T16:03:47;102928.90;;;2.94;55.25
66742;BME280;53654;54.152;19.432;2023-02-27T16:06:33;102935.09;;;2.93;55.49
66742;BME280;53654;54.152;19.432;2023-02-27T16:09:06;102944.58;;;2.97;55.58